Time;durP1;ratioP1;P1;durP2;ratioP2;P2;SDS_P1;SDS_P2;PMS_P1;PMS_P2;Temp;Humidity;BMP_temperature;BMP_pressure;BME280_temperature;BME280_humidity;BME280_pressure;Samples;Min_cycle;Max_cycle;Signal;HPM_P1;HPM_P2
2023/05/14 00:01:18;;;;;;;;;30.00;27.00;;;;;;;;4987794;28;45466;-76
2023/05/14 00:03:43;;;;;;;;;29.75;27.50;;;;;;;;4995213;28;45396;-77
2023/05/14 00:06:11;;;;;;;;;43.00;34.50;;;;;;;;4994413;28;45279;-76
2023/05/14 00:08:37;;;;;;;;;39.25;32.75;;;;;;;;4996922;28;45441;-78
2023/05/14 00:11:02;;;;;;;;;35.75;31.25;;;;;;;;4995680;28;45707;-76
2023/05/14 00:13:27;;;;;;;;;36.75;31.00;;;;;;;;4997049;28;45443;-77
2023/05/14 00:15:53;;;;;;;;;39.25;31.50;;;;;;;;4993808;28;45450;-75
2023/05/14 00:18:18;;;;;;;;;34.50;32.00;;;;;;;;4991808;28;45335;-75
2023/05/14 00:20:43;;;;;;;;;37.50;33.00;;;;;;;;4977484;28;45375;-76
2023/05/14 00:23:09;;;;;;;;;38.50;32.25;;;;;;;;4991663;28;45814;-76
2023/05/14 00:25:34;;;;;;;;;39.00;34.00;;;;;;;;4996462;28;45451;-75
2023/05/14 00:28:00;;;;;;;;;37.00;32.50;;;;;;;;4995314;28;45745;-76
2023/05/14 00:30:25;;;;;;;;;41.25;33.00;;;;;;;;4994618;28;45288;-75
2023/05/14 00:32:50;;;;;;;;;40.00;35.25;;;;;;;;4995947;28;45298;-76
2023/05/14 00:35:15;;;;;;;;;45.00;35.75;;;;;;;;4994866;28;45488;-76
2023/05/14 00:37:41;;;;;;;;;43.50;36.50;;;;;;;;4994487;28;45343;-75
2023/05/14 00:40:07;;;;;;;;;37.50;32.00;;;;;;;;4995208;28;45341;-74
2023/05/14 00:42:32;;;;;;;;;42.25;34.50;;;;;;;;4988426;28;45460;-76
2023/05/14 00:44:58;;;;;;;;;38.25;33.25;;;;;;;;4992282;28;45350;-77
2023/05/14 00:47:23;;;;;;;;;35.50;32.00;;;;;;;;4985043;28;45546;-74
2023/05/14 00:49:48;;;;;;;;;40.25;34.00;;;;;;;;4986016;28;45378;-77
2023/05/14 00:52:15;;;;;;;;;36.00;33.25;;;;;;;;4989436;28;46435;-75
2023/05/14 00:54:41;;;;;;;;;41.25;35.25;;;;;;;;4990380;28;45535;-75
2023/05/14 00:57:06;;;;;;;;;46.25;38.00;;;;;;;;4988648;28;45379;-76
2023/05/14 00:59:31;;;;;;;;;38.25;31.50;;;;;;;;4992666;28;45453;-75
2023/05/14 01:01:56;;;;;;;;;44.00;36.50;;;;;;;;4992159;28;45817;-76
2023/05/14 01:04:22;;;;;;;;;42.25;35.50;;;;;;;;4992514;28;45518;-75
2023/05/14 01:06:53;;;;;;;;;42.75;36.50;;;;;;;;4991088;28;45383;-75
2023/05/14 01:09:25;;;;;;;;;36.25;32.75;;;;;;;;4993646;28;45508;-75
2023/05/14 01:12:09;;;;;;;;;36.75;32.00;;;;;;;;4988368;28;47021;-76
2023/05/14 01:14:51;;;;;;;;;47.25;37.75;;;;;;;;4974661;28;45369;-76
2023/05/14 01:17:21;;;;;;;;;46.00;38.25;;;;;;;;4975519;28;45527;-76
2023/05/14 01:19:47;;;;;;;;;38.50;35.25;;;;;;;;4975635;28;45514;-76
2023/05/14 01:22:12;;;;;;;;;46.50;38.25;;;;;;;;4982784;28;46124;-76
2023/05/14 01:24:38;;;;;;;;;41.50;36.50;;;;;;;;4992861;28;45463;-76
2023/05/14 01:27:17;;;;;;;;;43.25;34.50;;;;;;;;4992973;28;45505;-75
2023/05/14 01:29:50;;;;;;;;;42.00;34.50;;;;;;;;4993813;28;45402;-76
2023/05/14 01:32:16;;;;;;;;;50.50;40.00;;;;;;;;4987719;28;45465;-77
2023/05/14 01:34:43;;;;;;;;;48.50;39.75;;;;;;;;4994664;28;45678;-76
2023/05/14 01:37:10;;;;;;;;;46.00;37.50;;;;;;;;4995033;28;45399;-75
2023/05/14 01:39:36;;;;;;;;;45.75;39.00;;;;;;;;4994423;28;45642;-75
2023/05/14 01:42:02;;;;;;;;;39.50;34.75;;;;;;;;4994795;28;45371;-75
2023/05/14 01:44:28;;;;;;;;;41.50;35.75;;;;;;;;4994983;28;45466;-76
2023/05/14 01:46:53;;;;;;;;;44.50;36.00;;;;;;;;4995198;28;45435;-76
2023/05/14 01:49:18;;;;;;;;;48.50;40.00;;;;;;;;4988047;28;45462;-75
2023/05/14 01:51:44;;;;;;;;;49.25;40.00;;;;;;;;4991044;28;45465;-76
2023/05/14 01:54:09;;;;;;;;;49.75;40.50;;;;;;;;4991794;28;45403;-75
2023/05/14 01:56:34;;;;;;;;;44.75;36.25;;;;;;;;4995525;28;45363;-77
2023/05/14 01:58:59;;;;;;;;;45.75;38.00;;;;;;;;4993197;28;45478;-76
2023/05/14 02:01:25;;;;;;;;;46.75;39.50;;;;;;;;4993017;28;45485;-76
2023/05/14 02:03:50;;;;;;;;;46.50;38.50;;;;;;;;4995495;28;45459;-75
2023/05/14 02:06:16;;;;;;;;;45.25;38.00;;;;;;;;4993970;28;45730;-76
2023/05/14 02:08:41;;;;;;;;;47.75;37.00;;;;;;;;4994670;28;45486;-76
2023/05/14 02:11:06;;;;;;;;;46.50;39.25;;;;;;;;4990106;28;45455;-75
2023/05/14 02:13:31;;;;;;;;;51.25;40.50;;;;;;;;4993058;28;45912;-75
2023/05/14 02:15:56;;;;;;;;;37.50;32.50;;;;;;;;4969721;28;45447;-74
2023/05/14 02:18:22;;;;;;;;;47.50;36.75;;;;;;;;4975598;28;45411;-75
2023/05/14 02:20:47;;;;;;;;;46.25;36.00;;;;;;;;5000681;28;48331;-75
2023/05/14 02:23:12;;;;;;;;;45.75;38.00;;;;;;;;4998558;28;45473;-74
2023/05/14 02:25:37;;;;;;;;;43.00;35.50;;;;;;;;4993697;28;45625;-75
2023/05/14 02:28:03;;;;;;;;;46.75;37.25;;;;;;;;4996982;28;45495;-75
2023/05/14 02:30:30;;;;;;;;;43.50;35.00;;;;;;;;4995585;28;45485;-76
2023/05/14 02:32:55;;;;;;;;;47.50;38.00;;;;;;;;4997630;28;45414;-75
2023/05/14 02:35:20;;;;;;;;;50.25;40.25;;;;;;;;4986843;28;45328;-75
2023/05/14 02:37:45;;;;;;;;;40.25;33.50;;;;;;;;4986599;28;45513;-74
2023/05/14 02:40:11;;;;;;;;;51.00;42.00;;;;;;;;4996628;28;45368;-73
2023/05/14 02:42:36;;;;;;;;;41.50;35.50;;;;;;;;4996599;28;45399;-74
2023/05/14 02:45:01;;;;;;;;;43.00;36.50;;;;;;;;4995418;28;45531;-76
2023/05/14 02:47:26;;;;;;;;;50.00;42.00;;;;;;;;4996740;28;45416;-74
2023/05/14 02:49:51;;;;;;;;;42.50;35.00;;;;;;;;4996479;28;46286;-76
2023/05/14 02:52:17;;;;;;;;;33.75;31.50;;;;;;;;4990359;28;46326;-76
2023/05/14 02:54:42;;;;;;;;;50.50;38.00;;;;;;;;4989632;28;45415;-75
2023/05/14 02:57:07;;;;;;;;;50.75;38.50;;;;;;;;4986954;28;45390;-74
2023/05/14 02:59:32;;;;;;;;;46.50;38.25;;;;;;;;5006963;28;46346;-76
2023/05/14 03:01:58;;;;;;;;;44.25;37.50;;;;;;;;5014509;28;45372;-75
2023/05/14 03:04:23;;;;;;;;;39.25;34.50;;;;;;;;4997372;28;45526;-74
2023/05/14 03:06:48;;;;;;;;;42.00;37.25;;;;;;;;4995513;28;45397;-73
2023/05/14 03:09:13;;;;;;;;;43.00;35.50;;;;;;;;4997365;28;46352;-75
2023/05/14 03:11:38;;;;;;;;;51.25;41.25;;;;;;;;4996383;28;45312;-75
2023/05/14 03:14:04;;;;;;;;;39.75;35.00;;;;;;;;4996738;28;45316;-75
2023/05/14 03:16:29;;;;;;;;;41.00;33.75;;;;;;;;4994562;28;45442;-75
2023/05/14 03:18:54;;;;;;;;;38.75;31.75;;;;;;;;4995997;28;47147;-75
2023/05/14 03:21:19;;;;;;;;;45.00;36.50;;;;;;;;4994923;28;45406;-74
2023/05/14 03:23:45;;;;;;;;;46.50;36.50;;;;;;;;4996531;28;45375;-75
2023/05/14 03:26:10;;;;;;;;;36.50;34.25;;;;;;;;4996440;28;45635;-77
2023/05/14 03:28:35;;;;;;;;;43.00;36.75;;;;;;;;4995971;28;45477;-76
2023/05/14 03:31:01;;;;;;;;;40.00;35.00;;;;;;;;4996468;28;45360;-73
2023/05/14 03:33:26;;;;;;;;;51.00;37.50;;;;;;;;4996384;28;45474;-77
2023/05/14 03:35:51;;;;;;;;;39.50;32.75;;;;;;;;4996497;28;45599;-77
2023/05/14 03:38:16;;;;;;;;;40.00;36.75;;;;;;;;4995492;28;46002;-77
2023/05/14 03:40:42;;;;;;;;;46.50;38.00;;;;;;;;4996573;28;45379;-77
2023/05/14 03:43:08;;;;;;;;;44.25;36.50;;;;;;;;4997259;28;45491;-76
2023/05/14 03:45:34;;;;;;;;;44.50;36.50;;;;;;;;4997100;28;45357;-76
2023/05/14 03:47:59;;;;;;;;;41.25;36.25;;;;;;;;4994869;28;46888;-75
2023/05/14 03:50:24;;;;;;;;;46.75;37.50;;;;;;;;4996333;28;45580;-76
2023/05/14 03:52:51;;;;;;;;;45.75;36.00;;;;;;;;4996402;28;45371;-78
2023/05/14 03:55:16;;;;;;;;;37.00;34.00;;;;;;;;4995612;28;45855;-77
2023/05/14 03:57:41;;;;;;;;;46.25;37.00;;;;;;;;4996409;28;45598;-76
2023/05/14 04:00:07;;;;;;;;;45.25;36.00;;;;;;;;4996729;28;45482;-76
2023/05/14 04:02:32;;;;;;;;;44.00;37.75;;;;;;;;4996794;28;45370;-76
2023/05/14 04:04:59;;;;;;;;;41.50;35.75;;;;;;;;4996408;28;45580;-77
2023/05/14 04:07:24;;;;;;;;;42.25;34.50;;;;;;;;4997218;28;45459;-78
2023/05/14 04:09:49;;;;;;;;;43.75;37.25;;;;;;;;4995746;28;45493;-78
2023/05/14 04:12:14;;;;;;;;;42.75;35.25;;;;;;;;4995087;28;45598;-78
2023/05/14 04:14:40;;;;;;;;;43.25;35.25;;;;;;;;4995074;28;45474;-77
2023/05/14 04:17:05;;;;;;;;;40.25;34.50;;;;;;;;4995981;28;46255;-77
2023/05/14 04:19:30;;;;;;;;;37.00;33.25;;;;;;;;4995552;28;45436;-77
2023/05/14 04:21:55;;;;;;;;;43.75;36.50;;;;;;;;4996016;28;45564;-77
2023/05/14 04:24:20;;;;;;;;;39.25;33.25;;;;;;;;4996195;28;45355;-77
2023/05/14 04:26:45;;;;;;;;;39.75;33.00;;;;;;;;4996050;28;45681;-78
2023/05/14 04:29:11;;;;;;;;;38.25;33.50;;;;;;;;4995594;28;45610;-77
2023/05/14 04:31:36;;;;;;;;;34.25;31.75;;;;;;;;4996050;28;45525;-77
2023/05/14 04:34:01;;;;;;;;;36.00;32.75;;;;;;;;4995130;28;45508;-77
2023/05/14 04:36:26;;;;;;;;;42.25;36.25;;;;;;;;4995024;28;45430;-76
2023/05/14 04:38:51;;;;;;;;;37.50;33.00;;;;;;;;4994143;28;45698;-76
2023/05/14 04:41:17;;;;;;;;;40.50;35.50;;;;;;;;4995397;28;45535;-75
2023/05/14 04:43:42;;;;;;;;;44.75;35.50;;;;;;;;4995107;28;45428;-76
2023/05/14 04:46:08;;;;;;;;;34.25;30.50;;;;;;;;4995203;28;46156;-75
2023/05/14 04:48:33;;;;;;;;;45.50;35.50;;;;;;;;4994001;28;45486;-77
2023/05/14 04:50:58;;;;;;;;;47.25;37.75;;;;;;;;4995211;28;45631;-76
2023/05/14 04:53:24;;;;;;;;;45.50;37.75;;;;;;;;4994583;28;45511;-76
2023/05/14 04:55:49;;;;;;;;;36.00;30.25;;;;;;;;4994830;28;46244;-76
2023/05/14 04:58:14;;;;;;;;;42.50;35.00;;;;;;;;4995271;28;45402;-77
2023/05/14 05:00:40;;;;;;;;;42.25;34.00;;;;;;;;4995457;28;45365;-77
2023/05/14 05:03:05;;;;;;;;;42.50;34.50;;;;;;;;4996237;28;45562;-77
2023/05/14 05:05:30;;;;;;;;;43.50;37.00;;;;;;;;4996038;28;45942;-77
2023/05/14 05:07:55;;;;;;;;;45.00;35.75;;;;;;;;4995833;28;45440;-77
2023/05/14 05:10:21;;;;;;;;;42.75;35.75;;;;;;;;4995724;28;45402;-77
2023/05/14 05:12:46;;;;;;;;;45.50;39.50;;;;;;;;4996096;28;45473;-77
2023/05/14 05:15:11;;;;;;;;;45.75;34.50;;;;;;;;4995858;28;47372;-77
2023/05/14 05:17:36;;;;;;;;;42.00;38.00;;;;;;;;4995500;28;45356;-76
2023/05/14 05:20:04;;;;;;;;;42.25;36.00;;;;;;;;4995418;28;45354;-76
2023/05/14 05:22:29;;;;;;;;;50.00;39.00;;;;;;;;4995013;28;45439;-76
2023/05/14 05:24:54;;;;;;;;;43.75;37.00;;;;;;;;4994198;28;45860;-77
2023/05/14 05:27:20;;;;;;;;;39.75;36.50;;;;;;;;4994768;28;45308;-76
2023/05/14 05:29:46;;;;;;;;;50.00;39.25;;;;;;;;4994284;28;45422;-75
2023/05/14 05:32:11;;;;;;;;;52.00;40.25;;;;;;;;4994097;28;45386;-76
2023/05/14 05:34:36;;;;;;;;;46.50;37.25;;;;;;;;4994398;28;46142;-76
2023/05/14 05:37:01;;;;;;;;;44.75;36.00;;;;;;;;4994490;28;45403;-77
2023/05/14 05:39:27;;;;;;;;;43.00;35.00;;;;;;;;4994845;28;45348;-77
2023/05/14 05:41:52;;;;;;;;;46.25;38.25;;;;;;;;4994423;28;45388;-77
2023/05/14 05:44:17;;;;;;;;;47.00;36.50;;;;;;;;4994819;28;46392;-76
2023/05/14 05:46:43;;;;;;;;;50.25;40.00;;;;;;;;4993738;28;45685;-77
2023/05/14 05:49:08;;;;;;;;;44.50;37.00;;;;;;;;4995461;28;45441;-76
2023/05/14 05:51:33;;;;;;;;;48.75;38.25;;;;;;;;4992939;28;45397;-76
2023/05/14 05:53:58;;;;;;;;;38.50;34.75;;;;;;;;4985476;28;46987;-77
2023/05/14 05:56:24;;;;;;;;;46.50;36.50;;;;;;;;4993997;28;45556;-76
2023/05/14 05:58:49;;;;;;;;;45.75;39.25;;;;;;;;4994107;28;45578;-76
2023/05/14 06:01:14;;;;;;;;;47.25;38.75;;;;;;;;4994194;28;45421;-76
2023/05/14 06:03:39;;;;;;;;;43.50;36.50;;;;;;;;4994315;28;46395;-76
2023/05/14 06:06:05;;;;;;;;;45.25;38.00;;;;;;;;4994300;28;45568;-77
2023/05/14 06:08:30;;;;;;;;;45.00;35.50;;;;;;;;4993604;28;45591;-76
2023/05/14 06:10:55;;;;;;;;;44.50;37.25;;;;;;;;4994395;28;45431;-76
2023/05/14 06:13:21;;;;;;;;;51.50;39.75;;;;;;;;4994552;28;46676;-75
2023/05/14 06:15:46;;;;;;;;;46.75;39.75;;;;;;;;4994436;28;45407;-77
2023/05/14 06:18:11;;;;;;;;;44.00;36.00;;;;;;;;4994671;28;45548;-76
2023/05/14 06:20:36;;;;;;;;;48.25;36.00;;;;;;;;4994331;28;45546;-76
2023/05/14 06:23:01;;;;;;;;;44.25;37.25;;;;;;;;4994183;28;45874;-76
2023/05/14 06:25:27;;;;;;;;;51.75;40.25;;;;;;;;4994365;28;45387;-75
2023/05/14 06:27:52;;;;;;;;;49.50;38.25;;;;;;;;4994028;28;45468;-76
2023/05/14 06:30:17;;;;;;;;;48.75;40.50;;;;;;;;4994356;28;45597;-75
2023/05/14 06:32:42;;;;;;;;;48.75;40.00;;;;;;;;4994360;28;45610;-76
2023/05/14 06:35:07;;;;;;;;;52.25;40.25;;;;;;;;4994283;28;45426;-76
2023/05/14 06:37:33;;;;;;;;;47.75;39.50;;;;;;;;4992794;28;45469;-75
2023/05/14 06:39:59;;;;;;;;;50.00;41.00;;;;;;;;4994313;28;45346;-75
2023/05/14 06:42:25;;;;;;;;;43.25;37.25;;;;;;;;4994259;28;46260;-76
2023/05/14 06:44:50;;;;;;;;;44.00;37.75;;;;;;;;4994204;28;45760;-75
2023/05/14 06:47:15;;;;;;;;;44.25;38.00;;;;;;;;4993973;28;45982;-75
2023/05/14 06:49:41;;;;;;;;;47.75;36.00;;;;;;;;4992761;28;45395;-76
2023/05/14 06:52:06;;;;;;;;;48.75;39.75;;;;;;;;4991957;28;47204;-74
2023/05/14 06:54:31;;;;;;;;;47.00;36.00;;;;;;;;4994149;28;45438;-76
2023/05/14 06:56:56;;;;;;;;;48.50;39.25;;;;;;;;4994746;28;45440;-75
2023/05/14 06:59:21;;;;;;;;;54.75;41.25;;;;;;;;4994644;28;45441;-76
2023/05/14 07:01:47;;;;;;;;;46.50;37.00;;;;;;;;4994313;28;46017;-77
2023/05/14 07:04:12;;;;;;;;;50.50;40.75;;;;;;;;4994402;28;45625;-76
2023/05/14 07:06:37;;;;;;;;;51.75;41.75;;;;;;;;4997064;28;45458;-76
2023/05/14 07:09:03;;;;;;;;;48.00;37.00;;;;;;;;4997180;28;45401;-75
2023/05/14 07:11:28;;;;;;;;;40.00;35.50;;;;;;;;4997010;28;45616;-75
2023/05/14 07:13:53;;;;;;;;;47.75;39.25;;;;;;;;4997458;28;45385;-75
2023/05/14 07:16:18;;;;;;;;;47.25;38.00;;;;;;;;4996925;28;45420;-75
2023/05/14 07:18:44;;;;;;;;;44.25;37.00;;;;;;;;4995587;28;45507;-74
2023/05/14 07:21:09;;;;;;;;;46.75;39.00;;;;;;;;4996114;28;46827;-74
2023/05/14 07:23:37;;;;;;;;;52.25;38.75;;;;;;;;4997496;28;45442;-74
2023/05/14 07:26:06;;;;;;;;;47.25;38.25;;;;;;;;4997633;28;45217;-74
2023/05/14 07:28:31;;;;;;;;;47.25;34.50;;;;;;;;4996981;28;45470;-74
2023/05/14 07:30:57;;;;;;;;;39.25;32.25;;;;;;;;4996886;28;45635;-76
2023/05/14 07:33:23;;;;;;;;;46.50;36.50;;;;;;;;4996968;28;45498;-78
2023/05/14 07:35:48;;;;;;;;;35.00;26.75;;;;;;;;4996064;28;45494;-77
2023/05/14 07:38:14;;;;;;;;;38.00;33.75;;;;;;;;4996989;28;45511;-79
2023/05/14 07:40:39;;;;;;;;;39.50;33.50;;;;;;;;4996918;28;45778;-77
2023/05/14 07:43:04;;;;;;;;;41.50;33.25;;;;;;;;4996951;28;45385;-77
2023/05/14 07:45:30;;;;;;;;;38.00;32.75;;;;;;;;4996763;28;45426;-77
2023/05/14 07:47:55;;;;;;;;;40.50;33.25;;;;;;;;4996006;28;45367;-76
2023/05/14 07:50:20;;;;;;;;;47.75;38.75;;;;;;;;4996788;28;45547;-78
2023/05/14 07:52:46;;;;;;;;;39.50;35.00;;;;;;;;4996994;28;45419;-77
2023/05/14 07:55:11;;;;;;;;;43.25;35.75;;;;;;;;4997261;28;45455;-76
2023/05/14 07:57:36;;;;;;;;;41.75;35.75;;;;;;;;4996838;28;45456;-76
2023/05/14 08:00:02;;;;;;;;;45.00;34.00;;;;;;;;4995253;28;47854;-78
2023/05/14 08:02:28;;;;;;;;;38.50;34.00;;;;;;;;4996300;28;45383;-77
2023/05/14 08:04:53;;;;;;;;;45.50;35.25;;;;;;;;4990632;28;45367;-77
2023/05/14 08:07:18;;;;;;;;;42.00;34.00;;;;;;;;4992601;28;45353;-77
2023/05/14 08:09:43;;;;;;;;;45.50;36.50;;;;;;;;4996056;28;45491;-79
2023/05/14 08:12:09;;;;;;;;;32.00;30.00;;;;;;;;4996512;28;45364;-78
2023/05/14 08:14:34;;;;;;;;;37.00;33.25;;;;;;;;4996367;28;45444;-77
2023/05/14 08:16:59;;;;;;;;;38.25;33.00;;;;;;;;4995098;28;45308;-79
2023/05/14 08:19:26;;;;;;;;;27.75;26.00;;;;;;;;4996534;28;45419;-77
2023/05/14 08:21:51;;;;;;;;;43.25;36.25;;;;;;;;4994748;28;45481;-79
2023/05/14 08:24:17;;;;;;;;;41.25;35.75;;;;;;;;4987534;28;45479;-78
2023/05/14 08:26:42;;;;;;;;;47.00;36.25;;;;;;;;4985142;28;45405;-77
2023/05/14 08:29:07;;;;;;;;;47.75;37.25;;;;;;;;4981374;28;46419;-78
2023/05/14 08:31:32;;;;;;;;;44.75;37.25;;;;;;;;4996377;28;45391;-77
2023/05/14 08:33:57;;;;;;;;;43.25;34.75;;;;;;;;4977067;28;45384;-78
2023/05/14 08:36:23;;;;;;;;;43.25;35.75;;;;;;;;4996344;28;45451;-79
2023/05/14 08:38:49;;;;;;;;;39.75;33.25;;;;;;;;4996441;28;45373;-79
2023/05/14 08:41:15;;;;;;;;;41.25;36.00;;;;;;;;4985960;28;45435;-78
2023/05/14 08:43:44;;;;;;;;;38.50;34.25;;;;;;;;4987259;28;45462;-78
2023/05/14 08:46:12;;;;;;;;;39.00;34.00;;;;;;;;4979943;28;45283;-77
2023/05/14 08:48:39;;;;;;;;;39.75;34.00;;;;;;;;4989238;28;46297;-78
2023/05/14 08:51:05;;;;;;;;;42.25;33.25;;;;;;;;4980304;28;45413;-77
2023/05/14 08:53:31;;;;;;;;;39.50;32.50;;;;;;;;4995084;28;45319;-78
2023/05/14 08:55:56;;;;;;;;;39.50;33.00;;;;;;;;4983567;28;45288;-77
2023/05/14 08:58:25;;;;;;;;;41.00;35.75;;;;;;;;4990399;28;46626;-79
2023/05/14 09:00:52;;;;;;;;;42.75;33.25;;;;;;;;4995061;28;45592;-78
2023/05/14 09:03:17;;;;;;;;;37.25;34.00;;;;;;;;4995081;28;45430;-77
2023/05/14 09:05:43;;;;;;;;;35.75;32.50;;;;;;;;4994820;28;45635;-78
2023/05/14 09:08:08;;;;;;;;;32.25;27.50;;;;;;;;4995495;28;46476;-78
2023/05/14 09:10:33;;;;;;;;;40.75;34.75;;;;;;;;4990200;28;45488;-78
2023/05/14 09:12:58;;;;;;;;;36.75;33.50;;;;;;;;4979701;28;45530;-79
2023/05/14 09:15:26;;;;;;;;;45.00;35.25;;;;;;;;4984975;28;45834;-77
2023/05/14 09:17:52;;;;;;;;;44.25;36.75;;;;;;;;4976170;28;47106;-79
2023/05/14 09:20:17;;;;;;;;;42.00;35.50;;;;;;;;4975571;28;45364;-78
2023/05/14 09:22:43;;;;;;;;;50.25;37.00;;;;;;;;4984746;28;45422;-78
2023/05/14 09:25:09;;;;;;;;;37.50;33.25;;;;;;;;4988593;28;45562;-78
2023/05/14 09:27:35;;;;;;;;;42.50;35.00;;;;;;;;4985294;28;46023;-79
2023/05/14 09:30:18;;;;;;;;;40.50;35.00;;;;;;;;4986511;28;45314;-78
2023/05/14 09:32:44;;;;;;;;;34.75;31.75;;;;;;;;4992943;28;45420;-78
2023/05/14 09:35:14;;;;;;;;;37.75;32.75;;;;;;;;4994789;28;45703;-78
2023/05/14 09:37:43;;;;;;;;;48.50;36.50;;;;;;;;4994212;28;45936;-78
2023/05/14 09:40:09;;;;;;;;;36.25;32.50;;;;;;;;4994628;28;45521;-78
2023/05/14 09:42:34;;;;;;;;;35.00;31.50;;;;;;;;4996600;28;45398;-79
2023/05/14 09:45:00;;;;;;;;;36.50;33.25;;;;;;;;4996540;28;45496;-79
2023/05/14 09:47:25;;;;;;;;;37.50;33.00;;;;;;;;4995735;28;45488;-77
2023/05/14 09:49:51;;;;;;;;;38.25;33.50;;;;;;;;4996296;28;45573;-77
2023/05/14 09:52:18;;;;;;;;;41.25;35.50;;;;;;;;4985908;28;45526;-78
2023/05/14 09:54:43;;;;;;;;;35.50;32.00;;;;;;;;4985053;28;45446;-77
2023/05/14 09:57:08;;;;;;;;;36.25;32.25;;;;;;;;4995207;28;46206;-78
2023/05/14 09:59:34;;;;;;;;;40.75;34.00;;;;;;;;4995423;28;45371;-78
2023/05/14 10:01:59;;;;;;;;;40.25;34.00;;;;;;;;4996287;28;45601;-77
2023/05/14 10:04:24;;;;;;;;;39.25;32.75;;;;;;;;4995486;28;45457;-77
2023/05/14 10:06:52;;;;;;;;;57.50;46.75;;;;;;;;4995262;28;46643;-79
2023/05/14 10:09:21;;;;;;;;;245.00;218.25;;;;;;;;4995263;28;45388;-78
2023/05/14 10:11:51;;;;;;;;;157.33;143.00;;;;;;;;4994786;28;45352;-78
2023/05/14 10:14:21;;;;;;;;;41.75;29.25;;;;;;;;4988602;28;45933;-78
2023/05/14 10:16:48;;;;;;;;;40.00;35.00;;;;;;;;4981967;28;45601;-78
2023/05/14 10:19:14;;;;;;;;;34.75;32.25;;;;;;;;4979990;28;45444;-78
2023/05/14 10:21:40;;;;;;;;;85.50;76.00;;;;;;;;4995685;28;45475;-79
2023/05/14 10:24:06;;;;;;;;;49.50;39.25;;;;;;;;4994791;28;45956;-78
2023/05/14 10:26:32;;;;;;;;;48.50;40.00;;;;;;;;4994587;28;46124;-78
2023/05/14 10:28:58;;;;;;;;;39.75;35.00;;;;;;;;4992278;28;45559;-79
2023/05/14 10:31:43;;;;;;;;;37.50;32.75;;;;;;;;4990326;28;45327;-78
2023/05/14 10:34:28;;;;;;;;;49.50;41.50;;;;;;;;4990873;28;45554;-79
2023/05/14 10:36:53;;;;;;;;;37.25;33.75;;;;;;;;4995319;28;46371;-79
2023/05/14 10:39:18;;;;;;;;;35.50;33.00;;;;;;;;4990813;28;45507;-79
2023/05/14 10:41:44;;;;;;;;;38.50;34.50;;;;;;;;4987410;28;45324;-81
2023/05/14 10:44:10;;;;;;;;;61.25;46.00;;;;;;;;4996062;28;45419;-78
2023/05/14 10:46:35;;;;;;;;;35.50;32.25;;;;;;;;4998295;28;46579;-78
2023/05/14 10:49:00;;;;;;;;;41.75;34.00;;;;;;;;4997876;28;45218;-80
2023/05/14 10:51:26;;;;;;;;;33.25;30.00;;;;;;;;4994733;28;45337;-79
2023/05/14 10:53:51;;;;;;;;;36.50;31.00;;;;;;;;4994911;28;45478;-79
2023/05/14 10:56:17;;;;;;;;;31.00;29.25;;;;;;;;4995293;28;45558;-79
2023/05/14 10:58:43;;;;;;;;;39.00;34.50;;;;;;;;4993964;28;45405;-78
2023/05/14 11:01:09;;;;;;;;;43.50;37.75;;;;;;;;4992841;28;45435;-79
2023/05/14 11:03:45;;;;;;;;;50.25;39.00;;;;;;;;4990811;28;45479;-78
2023/05/14 11:06:12;;;;;;;;;40.00;34.00;;;;;;;;4985786;28;45526;-78
2023/05/14 11:08:38;;;;;;;;;35.75;31.25;;;;;;;;4993519;28;45379;-78
2023/05/14 11:11:04;;;;;;;;;34.75;32.75;;;;;;;;4994736;28;45336;-79
2023/05/14 11:13:29;;;;;;;;;34.25;28.75;;;;;;;;4987222;28;45431;-77
2023/05/14 11:15:55;;;;;;;;;34.50;30.25;;;;;;;;4997015;28;47156;-79
2023/05/14 11:18:27;;;;;;;;;32.00;28.00;;;;;;;;4998123;28;45328;-79
2023/05/14 11:20:52;;;;;;;;;36.00;32.50;;;;;;;;4980352;28;45526;-77
2023/05/14 11:23:19;;;;;;;;;39.75;34.00;;;;;;;;4986856;28;45454;-80
2023/05/14 11:25:45;;;;;;;;;39.25;34.00;;;;;;;;4990534;28;45546;-78
2023/05/14 11:28:10;;;;;;;;;44.50;39.25;;;;;;;;4997053;28;45440;-76
2023/05/14 11:30:36;;;;;;;;;36.00;35.00;;;;;;;;4997937;28;45362;-76
2023/05/14 11:33:02;;;;;;;;;43.25;36.00;;;;;;;;4989383;28;45674;-76
2023/05/14 11:35:27;;;;;;;;;23.25;21.25;;;;;;;;4987963;28;46740;-76
2023/05/14 11:37:53;;;;;;;;;33.25;31.00;;;;;;;;4986020;28;45455;-78
2023/05/14 11:40:18;;;;;;;;;35.50;30.25;;;;;;;;4989130;28;45453;-79
2023/05/14 11:42:43;;;;;;;;;43.00;36.25;;;;;;;;4997036;28;45487;-81
2023/05/14 11:45:13;;;;;;;;;42.75;36.75;;;;;;;;4980989;28;45876;-78
2023/05/14 11:47:39;;;;;;;;;51.00;43.25;;;;;;;;4992478;28;45566;-78
2023/05/14 11:50:05;;;;;;;;;92.25;79.00;;;;;;;;4995910;28;45335;-77
2023/05/14 11:52:30;;;;;;;;;39.50;36.50;;;;;;;;4997572;28;45473;-78
2023/05/14 11:54:55;;;;;;;;;41.50;35.00;;;;;;;;4995525;28;45335;-78
2023/05/14 11:57:21;;;;;;;;;25.50;24.00;;;;;;;;4980369;28;45389;-78
2023/05/14 11:59:56;;;;;;;;;33.50;30.50;;;;;;;;4989655;28;45435;-78
2023/05/14 12:02:21;;;;;;;;;29.25;27.00;;;;;;;;4990864;28;45616;-79
2023/05/14 12:04:50;;;;;;;;;27.00;26.50;;;;;;;;4996420;28;46287;-77
2023/05/14 12:07:16;;;;;;;;;39.00;33.75;;;;;;;;4982125;28;45464;-78
2023/05/14 12:09:47;;;;;;;;;29.00;27.25;;;;;;;;4988879;28;45514;-78
2023/05/14 12:12:13;;;;;;;;;33.25;30.75;;;;;;;;4990900;28;45499;-76
2023/05/14 12:14:41;;;;;;;;;28.75;28.50;;;;;;;;4989749;28;45542;-77
2023/05/14 12:17:13;;;;;;;;;25.00;25.00;;;;;;;;4980170;28;45395;-79
2023/05/14 12:19:39;;;;;;;;;30.25;28.25;;;;;;;;4991421;28;45454;-76
2023/05/14 12:22:04;;;;;;;;;32.00;31.25;;;;;;;;4997348;28;45690;-76
2023/05/14 12:24:30;;;;;;;;;27.50;23.50;;;;;;;;4997019;28;46115;-78
2023/05/14 12:26:56;;;;;;;;;36.75;31.25;;;;;;;;4994149;28;45561;-76
2023/05/14 12:29:21;;;;;;;;;35.00;29.75;;;;;;;;4992344;28;45415;-77
2023/05/14 12:31:47;;;;;;;;;34.25;30.75;;;;;;;;4990315;28;45519;-77
2023/05/14 12:34:13;;;;;;;;;27.75;26.75;;;;;;;;4985193;28;46843;-77
2023/05/14 12:36:38;;;;;;;;;27.25;26.00;;;;;;;;4990429;28;45376;-75
2023/05/14 12:39:04;;;;;;;;;34.00;31.00;;;;;;;;4998573;28;45380;-78
2023/05/14 12:41:30;;;;;;;;;26.00;24.50;;;;;;;;4987770;28;45774;-77
2023/05/14 12:43:56;;;;;;;;;26.00;24.25;;;;;;;;4995603;28;45355;-72
2023/05/14 12:46:21;;;;;;;;;23.00;19.75;;;;;;;;4992846;28;45419;-76
2023/05/14 12:48:47;;;;;;;;;24.75;23.25;;;;;;;;4984482;28;46975;-76
2023/05/14 12:51:12;;;;;;;;;27.25;24.00;;;;;;;;4983989;28;45459;-78
2023/05/14 12:53:37;;;;;;;;;26.25;24.50;;;;;;;;4980851;28;46680;-74
2023/05/14 12:56:02;;;;;;;;;19.00;19.00;;;;;;;;4989546;28;45472;-75
2023/05/14 12:58:28;;;;;;;;;27.75;25.75;;;;;;;;4971737;28;45404;-79
2023/05/14 13:00:53;;;;;;;;;27.25;25.50;;;;;;;;4988778;28;45568;-75
2023/05/14 13:03:18;;;;;;;;;23.00;21.00;;;;;;;;4989527;28;45463;-74
2023/05/14 13:05:43;;;;;;;;;28.50;25.75;;;;;;;;4991616;28;45538;-80
2023/05/14 13:08:09;;;;;;;;;24.25;24.00;;;;;;;;4985365;28;45740;-77
2023/05/14 13:10:34;;;;;;;;;24.00;23.25;;;;;;;;4989968;28;45525;-76
2023/05/14 13:13:01;;;;;;;;;20.00;19.50;;;;;;;;4984753;28;45487;-76
2023/05/14 13:15:26;;;;;;;;;22.00;19.25;;;;;;;;4982305;28;47247;-75
2023/05/14 13:17:51;;;;;;;;;25.75;21.00;;;;;;;;4988588;28;46938;-74
2023/05/14 13:20:17;;;;;;;;;18.50;18.50;;;;;;;;4984123;28;47109;-78
2023/05/14 13:22:42;;;;;;;;;21.75;21.75;;;;;;;;4994691;28;46398;-73
2023/05/14 13:25:08;;;;;;;;;25.00;25.00;;;;;;;;4983206;28;46105;-74
2023/05/14 13:27:34;;;;;;;;;21.75;21.25;;;;;;;;4983662;28;45606;-75
2023/05/14 13:29:59;;;;;;;;;23.75;22.25;;;;;;;;4971822;28;45991;-76
2023/05/14 13:32:25;;;;;;;;;21.50;21.00;;;;;;;;4985726;28;46041;-74
2023/05/14 13:34:50;;;;;;;;;18.00;18.00;;;;;;;;4988245;28;45368;-74
2023/05/14 13:37:15;;;;;;;;;22.25;21.00;;;;;;;;4991985;28;45483;-75
2023/05/14 13:39:40;;;;;;;;;24.50;22.25;;;;;;;;4987543;28;45351;-75
2023/05/14 13:42:05;;;;;;;;;22.75;19.25;;;;;;;;4984824;28;45657;-75
2023/05/14 13:44:31;;;;;;;;;20.75;20.75;;;;;;;;4985330;28;45444;-75
2023/05/14 13:46:56;;;;;;;;;19.25;17.75;;;;;;;;4990029;28;45365;-75
2023/05/14 13:49:21;;;;;;;;;17.75;17.75;;;;;;;;4993039;28;45597;-74
2023/05/14 13:51:46;;;;;;;;;18.75;18.50;;;;;;;;4990946;28;47190;-75
2023/05/14 13:54:12;;;;;;;;;21.25;20.00;;;;;;;;4991361;28;45298;-73
2023/05/14 13:56:37;;;;;;;;;19.00;19.00;;;;;;;;4991097;28;45629;-73
2023/05/14 13:59:02;;;;;;;;;17.25;16.25;;;;;;;;4985054;28;46520;-74
2023/05/14 14:01:29;;;;;;;;;18.00;16.75;;;;;;;;4988798;28;47122;-74
2023/05/14 14:03:55;;;;;;;;;18.00;16.25;;;;;;;;4990540;28;45530;-76
2023/05/14 14:06:20;;;;;;;;;14.75;14.75;;;;;;;;4992290;28;45442;-74
2023/05/14 14:08:45;;;;;;;;;17.25;15.25;;;;;;;;4988564;28;45444;-76